Betagas — V2KA8 — position and weather

sailwx.info

Track history (hours):
 
Tides and Currents Weather Stations Pressure Air Temp Water Temp Dewpoint Dewpoint Depression Visibility Wind Speed Wind Dir Waves Ship Positions

Betagas

Last reported at 2016-Aug-25 04:26 UTC. Time now 2016-Aug-25 06:12 UTC.
Position N 51°16' E 004°20'.

Length 114.6 m; beam 15.7 m; draft 7.4 m.

Type: Tanker. MMSI: 304050636.

Date/timePositionNaut miles runAvg speedWind from/ knotsBaromVisibWave heightAir tempDewpointWater temp
2016-Aug-25 04:26N 51°16' E 004°20'0 0.0
2016-Aug-25 03:29N 51°16' E 004°20'0 0.0
2016-Aug-25 02:32N 51°16' E 004°20'0 0.0
2016-Aug-25 01:32N 51°16' E 004°20'0 0.0
2016-Aug-25 00:29N 51°16' E 004°20'0 0.0
2016-Aug-24 23:32N 51°16' E 004°20'0 0.0
2016-Aug-24 22:32N 51°16' E 004°20'0 0.0
2016-Aug-24 21:32N 51°16' E 004°20'0 0.0
2016-Aug-24 20:23N 51°16' E 004°20'0 0.0
2016-Aug-24 19:32N 51°16' E 004°20'0 0.0
2016-Aug-24 18:32N 51°16' E 004°20'0 0.0
2016-Aug-24 17:32N 51°16' E 004°20'0 0.0
2016-Aug-24 16:23N 51°16' E 004°20'0 0.0
2016-Aug-24 15:29N 51°16' E 004°20'0 0.0
2016-Aug-24 14:32N 51°16' E 004°20'0 0.0
2016-Aug-24 13:26N 51°16' E 004°20'0 0.0
2016-Aug-24 12:32N 51°16' E 004°20'0 0.0
2016-Aug-24 11:32N 51°16' E 004°20'0 0.0
2016-Aug-24 10:32N 51°16' E 004°20'0 0.0
2016-Aug-24 09:14N 51°16' E 004°20'0 0.0
2016-Aug-24 08:29N 51°16' E 004°20'0 0.0
2016-Aug-24 07:29N 51°16' E 004°20'0 0.0
2016-Aug-24 06:32N 51°16' E 004°20'0 0.0
2016-Aug-24 04:32N 51°16' E 004°20'0 0.0
2016-Aug-24 03:29N 51°16' E 004°20'0 0.0
2016-Aug-24 02:32N 51°16' E 004°20'0 0.0
2016-Aug-24 01:32N 51°16' E 004°20'0 0.0
2016-Aug-24 00:29N 51°16' E 004°20'0 0.0
2016-Aug-23 23:17N 51°16' E 004°20'0 0.0
2016-Aug-23 22:32N 51°16' E 004°20'0 0.0
2016-Aug-23 21:23N 51°16' E 004°20'0 0.0
2016-Aug-23 20:32N 51°16' E 004°20'0 0.0
2016-Aug-23 19:32N 51°16' E 004°20'0 0.0
2016-Aug-23 18:32N 51°16' E 004°20'0 0.0
2016-Aug-23 17:32N 51°16' E 004°20'0 0.0
2016-Aug-23 16:32N 51°16' E 004°20'0 0.0
2016-Aug-23 15:32N 51°16' E 004°20'0 0.0
2016-Aug-23 14:23N 51°16' E 004°20'0 0.0
2016-Aug-23 13:32N 51°16' E 004°20'0 0.0
2016-Aug-23 12:32N 51°16' E 004°20'0 0.0
2016-Aug-23 11:29N 51°16' E 004°20'0 0.0
2016-Aug-23 10:29N 51°16' E 004°20'0 0.0
2016-Aug-23 09:26N 51°16' E 004°20'0 0.0
2016-Aug-23 08:26N 51°16' E 004°20'0 0.0
2016-Aug-23 07:17N 51°16' E 004°20'0 0.0
2016-Aug-23 06:29N 51°16' E 004°20'0 0.0
2016-Aug-23 05:29N 51°16' E 004°20'0 0.0
2016-Aug-23 04:32N 51°16' E 004°20'0 0.0
2016-Aug-23 03:29N 51°16' E 004°20'0 0.0
2016-Aug-23 02:32N 51°16' E 004°20'0 0.0
2016-Aug-23 01:29N 51°16' E 004°20'0 0.0
2016-Aug-23 00:32N 51°16' E 004°20'0 0.0
2016-Aug-22 23:32N 51°16' E 004°20'0 0.0
2016-Aug-22 22:32N 51°16' E 004°20'0 0.0
2016-Aug-22 21:32N 51°16' E 004°20'0 0.0
2016-Aug-22 20:32N 51°16' E 004°20'0 0.0
2016-Aug-22 19:32N 51°16' E 004°20'0 0.0
2016-Aug-22 18:32N 51°16' E 004°20'0 0.0
2016-Aug-22 17:32N 51°16' E 004°20'0 0.0
2016-Aug-22 16:32N 51°16' E 004°20'0 0.0
2016-Aug-22 15:26N 51°16' E 004°20'0 0.0
2016-Aug-22 14:32N 51°16' E 004°20'0 0.0
2016-Aug-22 13:32N 51°16' E 004°20'0 0.0
2016-Aug-22 12:32N 51°16' E 004°20'0 0.0
2016-Aug-22 11:23N 51°16' E 004°20'0 0.0
2016-Aug-22 10:29N 51°16' E 004°20'1 1.4
2016-Aug-22 09:33N 51°17' E 004°20'4 4.4
2016-Aug-22 08:33N 51°21' E 004°17'1 0.8
2016-Aug-22 07:33N 51°21' E 004°16'5 5.2
2016-Aug-22 06:33N 51°22' E 004°08'7 7.1
2016-Aug-22 05:34N 51°23' E 003°56'1010.2
2016-Aug-22 04:33N 51°26' E 003°41'1313.0
2016-Aug-22 03:34N 51°24' E 003°20'1514.9
2016-Aug-22 02:34N 51°22' E 002°57'1110.5
2016-Aug-22 01:34N 51°22' E 002°40'1212.4
2016-Aug-22 00:34N 51°19' E 002°20'1313.4
2016-Aug-21 23:34N 51°13' E 002°02'1312.6
2016-Aug-21 22:33N 51°06' E 001°44'1211.6
2016-Aug-21 21:33N 50°58' E 001°32'1211.5
2016-Aug-21 20:33N 50°47' E 001°23'5412.4
2016-Aug-21 16:10N 50°20' E 000°09'813.2
2016-Aug-21 15:32N 50°18' W 000°03'13116.0
2016-Aug-21 07:19N 49°38' W 003°17'8614.9
2016-Aug-21 01:33N 48°56' W 005°12'1212.3
2016-Aug-21 00:33N 48°50' W 005°28'60913.5
2016-Aug-19 03:20N 39°12' W 009°57'1315.0
2016-Aug-19 02:28N 38°60' W 009°57'1415.2
2016-Aug-19 01:33N 38°46' W 009°57'1514.8
2016-Aug-19 00:33N 38°31' W 009°54'1414.3
2016-Aug-18 23:33N 38°17' W 009°50'1514.4
2016-Aug-18 22:33N 38°03' W 009°45'1414.4
2016-Aug-18 21:33N 37°49' W 009°41'1414.3
2016-Aug-18 20:33N 37°35' W 009°37'1414.1
2016-Aug-18 19:33N 37°21' W 009°33'1414.3
2016-Aug-18 18:33N 37°07' W 009°29'1414.0
2016-Aug-18 17:33N 36°54' W 009°25'1313.4
2016-Aug-18 16:33N 36°43' W 009°15'1313.5
2016-Aug-18 15:33N 36°37' W 008°60'1413.7
2016-Aug-18 14:33N 36°33' W 008°44'2814.0
2016-Aug-18 12:33N 36°25' W 008°10'4314.5
2016-Aug-18 09:33N 36°11' W 007°19'3215.2
2016-Aug-18 07:28N 36°01' W 006°42'5713.0
2016-Aug-18 03:06N 35°59' W 005°32'712.5
2016-Aug-18 02:33N 36°01' W 005°24'10813.4
2016-Aug-17 18:28N 36°18' W 003°12'1313.5
2016-Aug-17 17:29N 36°20' W 002°56'1414.7
2016-Aug-17 16:33N 36°22' W 002°38'1514.6
2016-Aug-17 15:33N 36°24' W 002°21'1414.1
2016-Aug-17 14:34N 36°31' W 002°05'1914.4
2016-Aug-17 13:16N 36°43' W 001°47'1314.4
2016-Aug-17 12:20N 36°52' W 001°35'4315.0
2016-Aug-17 09:30N 37°20' W 000°55'1414.6
2016-Aug-17 08:33N 37°29' W 000°41'1514.5
2016-Aug-17 07:33N 37°39' W 000°29'1514.4
2016-Aug-17 06:33N 37°52' W 000°20'1414.1
2016-Aug-17 05:33N 38°04' W 000°10'1513.9
2016-Aug-17 04:27N 38°15' E 000°02'11414.5
2016-Aug-16 20:33N 39°48' E 001°29'1514.9
2016-Aug-16 19:33N 39°59' E 001°41'1514.5
2016-Aug-16 18:33N 40°11' E 001°53'1414.3
2016-Aug-16 17:33N 40°22' E 002°04'1414.3
2016-Aug-16 16:33N 40°33' E 002°16'1514.6
2016-Aug-16 15:33N 40°45' E 002°28'1514.9
2016-Aug-16 14:33N 40°56' E 002°40'1514.9
2016-Aug-16 13:33N 41°08' E 002°52'3014.8
2016-Aug-16 11:33N 41°32' E 003°17'1614.9
2016-Aug-16 10:29N 41°44' E 003°30'1615.1
2016-Aug-16 09:27N 41°56' E 003°43'1715.2
2016-Aug-16 08:20N 42°10' E 003°57'1114.7
2016-Aug-16 07:33N 42°19' E 004°06'1515.3
2016-Aug-16 06:33N 42°31' E 004°19'3015.3
2016-Aug-16 04:33N 42°55' E 004°44'1515.0
2016-Aug-16 03:33N 43°07' E 004°56'1313.4
2016-Aug-16 02:33N 43°20' E 004°58'4 3.5
2016-Aug-16 01:33N 43°24' E 004°60'0 0.0
2016-Aug-16 00:33N 43°24' E 004°60'0 0.0
2016-Aug-15 23:33N 43°24' E 004°60'0 0.0
2016-Aug-15 22:33N 43°24' E 004°60'0 0.0
2016-Aug-15 21:33N 43°24' E 004°60'0 0.0
2016-Aug-15 20:33N 43°24' E 004°60'0 0.0
2016-Aug-15 19:33N 43°24' E 004°60'0 0.0
2016-Aug-15 18:33N 43°24' E 004°60'0 0.0
2016-Aug-15 17:33N 43°24' E 004°60'0 0.0
2016-Aug-15 16:33N 43°24' E 004°60'0 0.0
2016-Aug-15 15:30N 43°24' E 004°60'0 0.0
2016-Aug-15 14:33N 43°24' E 004°60'0 0.0
2016-Aug-15 13:33N 43°24' E 004°60'0 0.0
2016-Aug-15 12:33N 43°24' E 004°60'0 0.0
2016-Aug-15 11:33N 43°24' E 004°60'0 0.0
2016-Aug-15 10:33N 43°24' E 004°60'0 0.0
2016-Aug-15 09:33N 43°24' E 004°60'0 0.0
2016-Aug-15 08:33N 43°24' E 004°60'0 0.0
2016-Aug-15 07:33N 43°24' E 004°60'0 0.0
2016-Aug-15 06:33N 43°24' E 004°60'0 0.0
2016-Aug-15 04:33N 43°24' E 004°60'  
Track history (hours):
 
Tides and Currents Weather Stations Pressure Air Temp Water Temp Dewpoint Dewpoint Depression Visibility Wind Speed Wind Dir Waves Ship Positions

Betagas

Last reported at 2016-Aug-25 04:26 UTC. Time now 2016-Aug-25 06:12 UTC.
Position N 51°16' E 004°20'.

Length 114.6 m; beam 15.7 m; draft 7.4 m.

Type: Tanker. MMSI: 304050636.

Date/timePositionNaut miles runAvg speedWind from/ knotsBaromVisibWave heightAir tempDewpointWater temp
2016-Aug-25 04:26N 51°16' E 004°20'0 0.0
2016-Aug-25 03:29N 51°16' E 004°20'0 0.0
2016-Aug-25 02:32N 51°16' E 004°20'0 0.0
2016-Aug-25 01:32N 51°16' E 004°20'0 0.0
2016-Aug-25 00:29N 51°16' E 004°20'0 0.0
2016-Aug-24 23:32N 51°16' E 004°20'0 0.0
2016-Aug-24 22:32N 51°16' E 004°20'0 0.0
2016-Aug-24 21:32N 51°16' E 004°20'0 0.0
2016-Aug-24 20:23N 51°16' E 004°20'0 0.0
2016-Aug-24 19:32N 51°16' E 004°20'0 0.0
2016-Aug-24 18:32N 51°16' E 004°20'0 0.0
2016-Aug-24 17:32N 51°16' E 004°20'0 0.0
2016-Aug-24 16:23N 51°16' E 004°20'0 0.0
2016-Aug-24 15:29N 51°16' E 004°20'0 0.0
2016-Aug-24 14:32N 51°16' E 004°20'0 0.0
2016-Aug-24 13:26N 51°16' E 004°20'0 0.0
2016-Aug-24 12:32N 51°16' E 004°20'0 0.0
2016-Aug-24 11:32N 51°16' E 004°20'0 0.0
2016-Aug-24 10:32N 51°16' E 004°20'0 0.0
2016-Aug-24 09:14N 51°16' E 004°20'0 0.0
2016-Aug-24 08:29N 51°16' E 004°20'0 0.0
2016-Aug-24 07:29N 51°16' E 004°20'0 0.0
2016-Aug-24 06:32N 51°16' E 004°20'0 0.0
2016-Aug-24 04:32N 51°16' E 004°20'0 0.0
2016-Aug-24 03:29N 51°16' E 004°20'0 0.0
2016-Aug-24 02:32N 51°16' E 004°20'0 0.0
2016-Aug-24 01:32N 51°16' E 004°20'0 0.0
2016-Aug-24 00:29N 51°16' E 004°20'0 0.0
2016-Aug-23 23:17N 51°16' E 004°20'0 0.0
2016-Aug-23 22:32N 51°16' E 004°20'0 0.0
2016-Aug-23 21:23N 51°16' E 004°20'0 0.0
2016-Aug-23 20:32N 51°16' E 004°20'0 0.0
2016-Aug-23 19:32N 51°16' E 004°20'0 0.0
2016-Aug-23 18:32N 51°16' E 004°20'0 0.0
2016-Aug-23 17:32N 51°16' E 004°20'0 0.0
2016-Aug-23 16:32N 51°16' E 004°20'0 0.0
2016-Aug-23 15:32N 51°16' E 004°20'0 0.0
2016-Aug-23 14:23N 51°16' E 004°20'0 0.0
2016-Aug-23 13:32N 51°16' E 004°20'0 0.0
2016-Aug-23 12:32N 51°16' E 004°20'0 0.0
2016-Aug-23 11:29N 51°16' E 004°20'0 0.0
2016-Aug-23 10:29N 51°16' E 004°20'0 0.0
2016-Aug-23 09:26N 51°16' E 004°20'0 0.0
2016-Aug-23 08:26N 51°16' E 004°20'0 0.0
2016-Aug-23 07:17N 51°16' E 004°20'0 0.0
2016-Aug-23 06:29N 51°16' E 004°20'0 0.0
2016-Aug-23 05:29N 51°16' E 004°20'0 0.0
2016-Aug-23 04:32N 51°16' E 004°20'0 0.0
2016-Aug-23 03:29N 51°16' E 004°20'0 0.0
2016-Aug-23 02:32N 51°16' E 004°20'0 0.0
2016-Aug-23 01:29N 51°16' E 004°20'0 0.0
2016-Aug-23 00:32N 51°16' E 004°20'0 0.0
2016-Aug-22 23:32N 51°16' E 004°20'0 0.0
2016-Aug-22 22:32N 51°16' E 004°20'0 0.0
2016-Aug-22 21:32N 51°16' E 004°20'0 0.0
2016-Aug-22 20:32N 51°16' E 004°20'0 0.0
2016-Aug-22 19:32N 51°16' E 004°20'0 0.0
2016-Aug-22 18:32N 51°16' E 004°20'0 0.0
2016-Aug-22 17:32N 51°16' E 004°20'0 0.0
2016-Aug-22 16:32N 51°16' E 004°20'0 0.0
2016-Aug-22 15:26N 51°16' E 004°20'0 0.0
2016-Aug-22 14:32N 51°16' E 004°20'0 0.0
2016-Aug-22 13:32N 51°16' E 004°20'0 0.0
2016-Aug-22 12:32N 51°16' E 004°20'0 0.0
2016-Aug-22 11:23N 51°16' E 004°20'0 0.0
2016-Aug-22 10:29N 51°16' E 004°20'1 1.4
2016-Aug-22 09:33N 51°17' E 004°20'4 4.4
2016-Aug-22 08:33N 51°21' E 004°17'1 0.8
2016-Aug-22 07:33N 51°21' E 004°16'5 5.2
2016-Aug-22 06:33N 51°22' E 004°08'7 7.1
2016-Aug-22 05:34N 51°23' E 003°56'1010.2
2016-Aug-22 04:33N 51°26' E 003°41'1313.0
2016-Aug-22 03:34N 51°24' E 003°20'1514.9
2016-Aug-22 02:34N 51°22' E 002°57'1110.5
2016-Aug-22 01:34N 51°22' E 002°40'1212.4
2016-Aug-22 00:34N 51°19' E 002°20'1313.4
2016-Aug-21 23:34N 51°13' E 002°02'1312.6
2016-Aug-21 22:33N 51°06' E 001°44'1211.6
2016-Aug-21 21:33N 50°58' E 001°32'1211.5
2016-Aug-21 20:33N 50°47' E 001°23'5412.4
2016-Aug-21 16:10N 50°20' E 000°09'813.2
2016-Aug-21 15:32N 50°18' W 000°03'13116.0
2016-Aug-21 07:19N 49°38' W 003°17'8614.9
2016-Aug-21 01:33N 48°56' W 005°12'1212.3
2016-Aug-21 00:33N 48°50' W 005°28'60913.5
2016-Aug-19 03:20N 39°12' W 009°57'1315.0
2016-Aug-19 02:28N 38°60' W 009°57'1415.2
2016-Aug-19 01:33N 38°46' W 009°57'1514.8
2016-Aug-19 00:33N 38°31' W 009°54'1414.3
2016-Aug-18 23:33N 38°17' W 009°50'1514.4
2016-Aug-18 22:33N 38°03' W 009°45'1414.4
2016-Aug-18 21:33N 37°49' W 009°41'1414.3
2016-Aug-18 20:33N 37°35' W 009°37'1414.1
2016-Aug-18 19:33N 37°21' W 009°33'1414.3
2016-Aug-18 18:33N 37°07' W 009°29'1414.0
2016-Aug-18 17:33N 36°54' W 009°25'1313.4
2016-Aug-18 16:33N 36°43' W 009°15'1313.5
2016-Aug-18 15:33N 36°37' W 008°60'1413.7
2016-Aug-18 14:33N 36°33' W 008°44'2814.0
2016-Aug-18 12:33N 36°25' W 008°10'4314.5
2016-Aug-18 09:33N 36°11' W 007°19'3215.2
2016-Aug-18 07:28N 36°01' W 006°42'5713.0
2016-Aug-18 03:06N 35°59' W 005°32'712.5
2016-Aug-18 02:33N 36°01' W 005°24'10813.4
2016-Aug-17 18:28N 36°18' W 003°12'1313.5
2016-Aug-17 17:29N 36°20' W 002°56'1414.7
2016-Aug-17 16:33N 36°22' W 002°38'1514.6
2016-Aug-17 15:33N 36°24' W 002°21'1414.1
2016-Aug-17 14:34N 36°31' W 002°05'1914.4
2016-Aug-17 13:16N 36°43' W 001°47'1314.4
2016-Aug-17 12:20N 36°52' W 001°35'4315.0
2016-Aug-17 09:30N 37°20' W 000°55'1414.6
2016-Aug-17 08:33N 37°29' W 000°41'1514.5
2016-Aug-17 07:33N 37°39' W 000°29'1514.4
2016-Aug-17 06:33N 37°52' W 000°20'1414.1
2016-Aug-17 05:33N 38°04' W 000°10'1513.9
2016-Aug-17 04:27N 38°15' E 000°02'11414.5
2016-Aug-16 20:33N 39°48' E 001°29'1514.9
2016-Aug-16 19:33N 39°59' E 001°41'1514.5
2016-Aug-16 18:33N 40°11' E 001°53'1414.3
2016-Aug-16 17:33N 40°22' E 002°04'1414.3
2016-Aug-16 16:33N 40°33' E 002°16'1514.6
2016-Aug-16 15:33N 40°45' E 002°28'1514.9
2016-Aug-16 14:33N 40°56' E 002°40'1514.9
2016-Aug-16 13:33N 41°08' E 002°52'3014.8
2016-Aug-16 11:33N 41°32' E 003°17'1614.9
2016-Aug-16 10:29N 41°44' E 003°30'1615.1
2016-Aug-16 09:27N 41°56' E 003°43'1715.2
2016-Aug-16 08:20N 42°10' E 003°57'1114.7
2016-Aug-16 07:33N 42°19' E 004°06'1515.3
2016-Aug-16 06:33N 42°31' E 004°19'3015.3
2016-Aug-16 04:33N 42°55' E 004°44'1515.0
2016-Aug-16 03:33N 43°07' E 004°56'1313.4
2016-Aug-16 02:33N 43°20' E 004°58'4 3.5
2016-Aug-16 01:33N 43°24' E 004°60'0 0.0
2016-Aug-16 00:33N 43°24' E 004°60'0 0.0
2016-Aug-15 23:33N 43°24' E 004°60'0 0.0
2016-Aug-15 22:33N 43°24' E 004°60'0 0.0
2016-Aug-15 21:33N 43°24' E 004°60'0 0.0
2016-Aug-15 20:33N 43°24' E 004°60'0 0.0
2016-Aug-15 19:33N 43°24' E 004°60'0 0.0
2016-Aug-15 18:33N 43°24' E 004°60'0 0.0
2016-Aug-15 17:33N 43°24' E 004°60'0 0.0
2016-Aug-15 16:33N 43°24' E 004°60'0 0.0
2016-Aug-15 15:30N 43°24' E 004°60'0 0.0
2016-Aug-15 14:33N 43°24' E 004°60'0 0.0
2016-Aug-15 13:33N 43°24' E 004°60'0 0.0
2016-Aug-15 12:33N 43°24' E 004°60'0 0.0
2016-Aug-15 11:33N 43°24' E 004°60'0 0.0
2016-Aug-15 10:33N 43°24' E 004°60'0 0.0
2016-Aug-15 09:33N 43°24' E 004°60'0 0.0
2016-Aug-15 08:33N 43°24' E 004°60'0 0.0
2016-Aug-15 07:33N 43°24' E 004°60'0 0.0
2016-Aug-15 06:33N 43°24' E 004°60'0 0.0
2016-Aug-15 04:33N 43°24' E 004°60'  

Dump ship's entire track history